createdAt,value
2019-05-11T00:00:35.284Z,95003.92
2019-05-11T00:03:03.697Z,94997.95
2019-05-11T00:05:32.104Z,94984.95
2019-05-11T00:08:00.513Z,94984.59
2019-05-11T00:13:06.180Z,94974.42
2019-05-11T00:15:34.586Z,94962.58
2019-05-11T00:18:03.043Z,94962.63
2019-05-11T00:20:31.384Z,94962.08
2019-05-11T00:23:00.685Z,94964.63
2019-05-11T00:25:29.080Z,94966.91
2019-05-11T00:27:57.460Z,94963.41
2019-05-11T00:30:25.903Z,94963.70
2019-05-11T00:32:54.425Z,94958.29
2019-05-11T00:35:22.797Z,94949.92
2019-05-11T00:37:51.184Z,94940.07
2019-05-11T00:40:19.774Z,94939.39
2019-05-11T00:42:48.147Z,94938.95
2019-05-11T00:45:16.543Z,94939.56
2019-05-11T00:47:45.029Z,94939.30
2019-05-11T00:50:13.424Z,94941.70
2019-05-11T00:52:41.834Z,94945.67
2019-05-11T00:55:10.222Z,94943.53
2019-05-11T00:57:38.604Z,94932.02
2019-05-11T01:00:07.961Z,94922.83
2019-05-11T01:05:10.595Z,94920.88
2019-05-11T01:07:38.949Z,94904.48
2019-05-11T01:10:21.857Z,94896.84
2019-05-11T01:12:35.787Z,94893.84
2019-05-11T01:15:04.207Z,94886.72
2019-05-11T01:20:06.924Z,94890.58
2019-05-11T01:22:35.334Z,94896.98
2019-05-11T01:25:03.720Z,94898.70
2019-05-11T01:27:32.136Z,94883.94
2019-05-11T01:30:00.539Z,94875.88
2019-05-11T01:32:28.961Z,94883.40
2019-05-11T01:34:57.348Z,94888.47
2019-05-11T01:37:25.813Z,94884.28
2019-05-11T01:39:54.291Z,94879.31
2019-05-11T01:42:22.684Z,94865.27
2019-05-11T01:44:51.085Z,94854.90
2019-05-11T01:47:20.478Z,94854.90
2019-05-11T01:49:48.855Z,94857.41
2019-05-11T01:54:51.479Z,94864.45
2019-05-11T01:57:41.032Z,94865.16
2019-05-11T02:00:09.413Z,94861.73
2019-05-11T02:02:38.808Z,94853.55
2019-05-11T02:05:12.575Z,94849.70
2019-05-11T02:07:40.976Z,94842.00
2019-05-11T02:10:09.345Z,94844.88
2019-05-11T02:12:37.706Z,94847.91
2019-05-11T02:15:06.125Z,94853.16
2019-05-11T02:17:34.489Z,94858.13
2019-05-11T02:20:03.836Z,94862.52
2019-05-11T02:22:32.192Z,94856.02
2019-05-11T02:27:34.770Z,94851.60
2019-05-11T02:30:03.167Z,94845.10
2019-05-11T02:32:31.484Z,94843.13
2019-05-11T02:34:59.827Z,94831.50
2019-05-11T02:40:04.112Z,94842.20
2019-05-11T02:42:32.404Z,94841.46
2019-05-11T02:45:00.737Z,94834.55
2019-05-11T02:50:03.311Z,94827.07
2019-05-11T02:52:31.661Z,94826.84
2019-05-11T02:55:00.018Z,94812.34
2019-05-11T02:57:28.362Z,94807.84
2019-05-11T02:59:56.730Z,94796.97
2019-05-11T03:02:25.076Z,94800.88
2019-05-11T03:04:53.437Z,94802.58
2019-05-11T03:07:21.815Z,94802.70
2019-05-11T03:09:50.137Z,94792.80
2019-05-11T03:12:18.525Z,94782.11
2019-05-11T03:14:46.933Z,94785.94
2019-05-11T03:17:15.285Z,94784.28
2019-05-11T03:19:43.610Z,94783.20
2019-05-11T03:22:12.010Z,94781.47
2019-05-11T03:24:40.350Z,94768.95
2019-05-11T03:27:08.693Z,94766.70
2019-05-11T03:29:37.036Z,94765.13
2019-05-11T03:32:06.393Z,94760.86
2019-05-11T03:34:34.723Z,94760.14
2019-05-11T03:37:03.063Z,94755.89
2019-05-11T03:39:31.428Z,94750.95
2019-05-11T03:42:13.989Z,94746.16
2019-05-11T03:44:28.185Z,94749.65
2019-05-11T03:46:56.518Z,94745.75
2019-05-11T03:49:25.073Z,94740.50
2019-05-11T03:51:53.335Z,94740.94
2019-05-11T03:54:21.712Z,94740.69
2019-05-11T03:56:50.087Z,94742.80
2019-05-11T03:59:18.410Z,94743.64
2019-05-11T04:01:46.782Z,94740.06
2019-05-11T04:04:16.643Z,94746.86
2019-05-11T04:06:43.617Z,94749.22
2019-05-11T04:09:13.956Z,94751.27
2019-05-11T04:14:18.563Z,94747.56
2019-05-11T04:16:46.896Z,94754.06
2019-05-11T04:19:15.275Z,94763.95
2019-05-11T04:21:44.550Z,94755.66
2019-05-11T04:24:12.899Z,94773.75
2019-05-11T04:26:41.254Z,94781.45
2019-05-11T04:29:09.628Z,94775.46
2019-05-11T04:34:12.192Z,94782.58
2019-05-11T04:36:40.565Z,94790.03
2019-05-11T04:39:08.938Z,94799.47
2019-05-11T04:44:11.562Z,94793.58
2019-05-11T04:46:39.901Z,94776.59
2019-05-11T04:49:08.330Z,94774.45
2019-05-11T04:51:36.669Z,94784.60
2019-05-11T04:54:05.022Z,94790.64
2019-05-11T04:59:07.585Z,94798.64
2019-05-11T05:01:35.917Z,94804.59
2019-05-11T05:04:13.744Z,94802.83
2019-05-11T05:09:07.004Z,94822.14
2019-05-11T05:11:36.969Z,94816.95
2019-05-11T05:14:08.387Z,94822.78
2019-05-11T05:16:32.076Z,94820.98
2019-05-11T05:19:00.440Z,94827.25
2019-05-11T05:21:28.805Z,94825.16
2019-05-11T05:23:57.265Z,94828.86
2019-05-11T05:26:25.644Z,94822.75
2019-05-11T05:28:54.003Z,94825.55
2019-05-11T05:31:22.360Z,94840.34
2019-05-11T05:33:50.724Z,94837.88
2019-05-11T05:36:19.078Z,94833.58
2019-05-11T05:38:47.469Z,94837.92
2019-05-11T05:41:15.835Z,94856.53
2019-05-11T05:43:44.223Z,94880.19
2019-05-11T05:46:12.593Z,94869.53
2019-05-11T05:48:40.965Z,94878.33
2019-05-11T05:51:09.350Z,94876.58
2019-05-11T05:53:38.682Z,94868.91
2019-05-11T05:56:07.113Z,94852.06
2019-05-11T05:58:35.520Z,94827.36
2019-05-11T06:01:09.599Z,94772.54
2019-05-11T06:03:34.087Z,94790.51
2019-05-11T06:08:36.680Z,94772.59
2019-05-11T06:11:05.161Z,94766.94
2019-05-11T06:13:44.768Z,94781.15
2019-05-11T06:16:02.028Z,94778.05
2019-05-11T06:18:30.380Z,94786.52
2019-05-11T06:20:58.770Z,94789.70
2019-05-11T06:23:27.113Z,94801.06
2019-05-11T06:25:55.495Z,94813.11
2019-05-11T06:28:23.836Z,94865.31
2019-05-11T06:30:52.197Z,94868.36
2019-05-11T06:33:20.709Z,94871.94
2019-05-11T06:35:49.067Z,94870.18
2019-05-11T06:38:17.449Z,94873.14
2019-05-11T06:40:45.834Z,94867.66
2019-05-11T06:43:15.221Z,94868.03
2019-05-11T06:45:43.697Z,94861.02
2019-05-11T06:50:48.308Z,94849.79
2019-05-11T06:53:16.719Z,94840.27
2019-05-11T06:55:45.107Z,94836.84
2019-05-11T06:58:13.532Z,94823.22
2019-05-11T07:00:41.896Z,94815.22
2019-05-11T07:03:10.342Z,94815.97
2019-05-11T07:05:38.724Z,94827.91
2019-05-11T07:08:08.091Z,94837.16
2019-05-11T07:10:36.437Z,94836.56
2019-05-11T07:13:04.857Z,94846.62
2019-05-11T07:15:33.219Z,94856.94
2019-05-11T07:18:01.558Z,94854.48
2019-05-11T07:20:29.922Z,94855.02
2019-05-11T07:22:58.275Z,94858.39
2019-05-11T07:25:26.669Z,94853.83
2019-05-11T07:27:56.001Z,94855.20
2019-05-11T07:30:24.368Z,94851.08
2019-05-11T07:32:52.735Z,94852.14
2019-05-11T07:35:22.099Z,94851.22
2019-05-11T07:37:50.452Z,94844.28
2019-05-11T07:42:53.024Z,94835.54
2019-05-11T07:45:21.383Z,94839.95
2019-05-11T07:47:49.740Z,94838.45
2019-05-11T07:52:52.293Z,94832.31
2019-05-11T07:55:20.673Z,94836.72
2019-05-11T07:57:49.022Z,94839.06
2019-05-11T08:00:18.619Z,94844.00
2019-05-11T08:02:47.856Z,94839.45
2019-05-11T08:05:14.224Z,94826.70
2019-05-11T08:07:43.571Z,94818.23
2019-05-11T08:10:12.098Z,94816.49
2019-05-11T08:12:40.428Z,94833.25
2019-05-11T08:15:12.955Z,94830.90
2019-05-11T08:17:38.102Z,94839.87
2019-05-11T08:20:05.621Z,94835.02
2019-05-11T08:22:33.962Z,94839.25
2019-05-11T08:25:02.317Z,94833.16
2019-05-11T08:27:30.680Z,94831.97
2019-05-11T08:29:59.085Z,94834.63
2019-05-11T08:32:28.689Z,94838.01
2019-05-11T08:34:57.937Z,94841.70
2019-05-11T08:37:25.102Z,94841.67
2019-05-11T08:39:53.504Z,94848.59
2019-05-11T08:42:21.888Z,94849.48
2019-05-11T08:44:50.274Z,94855.13
2019-05-11T08:47:18.683Z,94849.27
2019-05-11T08:49:48.428Z,94845.87
2019-05-11T08:52:15.402Z,94836.25
2019-05-11T08:54:43.768Z,94843.89
2019-05-11T08:57:12.156Z,94847.78
2019-05-11T08:59:41.457Z,94841.73
2019-05-11T09:02:09.853Z,94844.77
2019-05-11T09:04:41.822Z,94841.51
2019-05-11T09:07:07.848Z,94837.81
2019-05-11T09:09:34.898Z,94843.55
2019-05-11T09:12:03.264Z,94844.73
2019-05-11T09:14:32.593Z,94844.81
2019-05-11T09:17:00.971Z,94856.13
2019-05-11T09:19:29.316Z,94865.16
2019-05-11T09:21:58.879Z,94854.97
2019-05-11T09:24:28.016Z,94855.81
2019-05-11T09:26:54.414Z,94862.60
2019-05-11T09:29:22.773Z,94864.50
2019-05-11T09:31:51.138Z,94861.31
2019-05-11T09:36:54.029Z,94878.63
2019-05-11T09:39:22.384Z,94886.58
2019-05-11T09:41:50.728Z,94872.25
2019-05-11T09:44:19.104Z,94881.46
2019-05-11T09:46:47.874Z,94873.27
2019-05-11T09:51:50.145Z,94865.36
2019-05-11T09:54:18.509Z,94878.97
2019-05-11T09:56:48.637Z,94875.83
2019-05-11T09:59:17.704Z,94867.19
2019-05-11T10:01:43.603Z,94873.38
2019-05-11T10:04:12.025Z,94881.48
2019-05-11T10:06:40.400Z,94876.47
2019-05-11T10:09:08.752Z,94876.63
2019-05-11T10:11:39.565Z,94884.38
2019-05-11T10:14:08.214Z,94889.80
2019-05-11T10:16:35.142Z,94890.96
2019-05-11T10:19:03.529Z,94872.94
2019-05-11T10:26:42.450Z,94867.25
2019-05-11T10:29:10.802Z,94864.33
2019-05-11T10:34:17.951Z,94863.89
2019-05-11T10:36:44.737Z,94866.89
2019-05-11T10:39:13.100Z,94863.19
2019-05-11T10:41:41.482Z,94854.92
2019-05-11T10:44:09.846Z,94867.30
2019-05-11T10:46:38.237Z,94862.02
2019-05-11T10:49:07.999Z,94874.38
2019-05-11T10:54:09.381Z,94857.95
2019-05-11T10:56:38.891Z,94857.73
2019-05-11T10:59:07.994Z,94863.31
2019-05-11T11:01:34.492Z,94870.95
2019-05-11T11:04:02.881Z,94860.16
2019-05-11T11:06:32.129Z,94861.53
2019-05-11T11:09:00.512Z,94844.92
2019-05-11T11:11:28.898Z,94840.70
2019-05-11T11:16:38.726Z,94842.04
2019-05-11T11:19:01.907Z,94838.55
2019-05-11T11:21:30.324Z,94843.84
2019-05-11T11:23:58.783Z,94849.45
2019-05-11T11:29:03.205Z,94854.77
2019-05-11T11:31:31.541Z,94858.74
2019-05-11T11:34:00.941Z,94853.39
2019-05-11T11:36:29.364Z,94857.77
2019-05-11T11:41:31.972Z,94853.55
2019-05-11T11:44:00.313Z,94860.25
2019-05-11T11:46:28.695Z,94864.22
2019-05-11T11:48:58.120Z,94864.50
2019-05-11T11:51:28.060Z,94861.53
2019-05-11T11:53:54.646Z,94877.75
2019-05-11T11:56:23.002Z,94866.76
2019-05-11T11:58:51.395Z,94873.74
2019-05-11T12:01:19.754Z,94886.05
2019-05-11T12:03:48.965Z,94886.03
2019-05-11T12:08:51.652Z,94881.39
2019-05-11T12:11:20.980Z,94884.83
2019-05-11T12:13:49.319Z,94887.70
2019-05-11T12:16:18.187Z,94891.23
2019-05-11T12:18:48.398Z,94893.59
2019-05-11T12:23:48.890Z,94885.73
2019-05-11T12:26:17.701Z,94908.66
2019-05-11T12:31:19.789Z,94884.42
2019-05-11T12:33:48.526Z,94871.28
2019-05-11T12:36:18.441Z,94861.25
2019-05-11T12:38:44.923Z,94855.20
2019-05-11T12:41:13.260Z,94858.95
2019-05-11T12:43:41.644Z,94861.64
2019-05-11T12:46:10.040Z,94864.75
2019-05-11T12:48:38.593Z,94873.77
2019-05-11T12:51:08.034Z,94883.22
2019-05-11T12:53:35.276Z,94887.16
2019-05-11T12:56:04.549Z,94885.27
2019-05-11T12:58:32.925Z,94888.50
2019-05-11T13:01:01.301Z,94868.50
2019-05-11T13:03:29.840Z,94852.81
2019-05-11T13:05:58.544Z,94858.56
2019-05-11T13:08:27.752Z,94866.80
2019-05-11T13:10:54.908Z,94858.60
2019-05-11T13:13:25.209Z,94866.47
2019-05-11T13:15:53.565Z,94873.67
2019-05-11T13:18:22.004Z,94884.54
2019-05-11T13:20:50.411Z,94901.27
2019-05-11T13:23:18.770Z,94904.59
2019-05-11T13:28:22.327Z,94907.16
2019-05-11T13:30:50.678Z,94929.87
2019-05-11T13:33:19.306Z,94910.70
2019-05-11T13:38:21.665Z,94930.73
2019-05-11T13:40:50.045Z,94930.33
2019-05-11T13:43:18.916Z,94940.35
2019-05-11T13:48:22.968Z,94941.44
2019-05-11T13:50:51.342Z,94948.63
2019-05-11T13:53:19.692Z,94944.17
2019-05-11T13:58:22.286Z,94945.34
2019-05-11T14:00:50.668Z,94944.61
2019-05-11T14:03:19.039Z,94937.63
2019-05-11T14:05:48.269Z,94951.92
2019-05-11T14:10:50.041Z,94905.36
2019-05-11T14:13:18.393Z,94897.67
2019-05-11T14:15:48.097Z,94911.20
2019-05-11T14:18:17.617Z,94931.86
2019-05-11T14:20:43.483Z,94940.39
2019-05-11T14:23:11.861Z,94933.53
2019-05-11T14:25:40.203Z,94948.52
2019-05-11T14:28:09.689Z,94944.27
2019-05-11T14:30:38.762Z,94954.30
2019-05-11T14:33:08.507Z,94962.92
2019-05-11T14:35:34.745Z,94974.87
2019-05-11T14:38:03.088Z,94973.86
2019-05-11T14:40:31.457Z,94991.82
2019-05-11T14:42:59.812Z,94985.39
2019-05-11T14:45:28.776Z,94993.38
2019-05-11T14:47:58.217Z,94984.77
2019-05-11T14:50:24.868Z,94989.27
2019-05-11T14:52:53.213Z,94995.32
2019-05-11T14:55:23.498Z,95035.91
2019-05-11T14:57:51.856Z,95009.86
2019-05-11T15:00:20.201Z,95002.59
2019-05-11T15:02:49.652Z,94988.78
2019-05-11T15:07:52.733Z,94995.08
2019-05-11T15:12:53.726Z,94999.43
2019-05-11T15:15:22.061Z,94991.33
2019-05-11T15:17:50.420Z,94995.95
2019-05-11T15:22:55.083Z,94990.47
2019-05-11T15:25:23.440Z,94981.20
2019-05-11T15:27:51.845Z,94988.78
2019-05-11T15:30:20.322Z,94998.38
2019-05-11T15:35:22.943Z,94999.42
2019-05-11T15:37:51.335Z,94990.79
2019-05-11T15:42:53.994Z,94994.50
2019-05-11T15:45:22.348Z,95004.91
2019-05-11T15:47:50.735Z,95005.00
2019-05-11T15:50:19.359Z,95011.95
2019-05-11T15:52:48.823Z,95023.84
2019-05-11T15:55:18.591Z,95035.00
2019-05-11T15:57:44.114Z,95046.02
2019-05-11T16:00:12.461Z,95047.93
2019-05-11T16:02:41.256Z,95044.66
2019-05-11T16:07:43.478Z,95032.59
2019-05-11T16:10:11.817Z,95031.50
2019-05-11T16:12:40.200Z,95028.31
2019-05-11T16:15:08.740Z,95034.17
2019-05-11T16:17:40.092Z,95038.60
2019-05-11T16:20:08.757Z,95049.86
2019-05-11T16:22:38.466Z,95042.04
2019-05-11T16:25:08.635Z,95046.66
2019-05-11T16:27:35.057Z,95056.56
2019-05-11T16:30:03.397Z,95045.91
2019-05-11T16:32:31.760Z,95044.59
2019-05-11T16:35:00.479Z,95052.19
2019-05-11T16:37:28.897Z,95058.08
2019-05-11T16:39:58.300Z,95055.23
2019-05-11T16:42:27.662Z,95053.29
2019-05-11T16:44:53.886Z,95055.47
2019-05-11T16:47:22.224Z,95062.51
2019-05-11T16:49:50.626Z,95067.78
2019-05-11T16:54:53.241Z,95070.26
2019-05-11T16:57:21.600Z,95079.70
2019-05-11T16:59:50.874Z,95083.95
2019-05-11T17:02:19.257Z,95091.48
2019-05-11T17:04:48.572Z,95087.23
2019-05-11T17:07:17.075Z,95086.77
2019-05-11T17:09:48.480Z,95092.78
2019-05-11T17:12:17.986Z,95086.52
2019-05-11T17:14:50.898Z,95091.97
2019-05-11T17:17:22.529Z,95096.95
2019-05-11T17:19:51.495Z,95104.28
2019-05-11T17:22:20.874Z,95114.56
2019-05-11T17:24:50.166Z,95124.41
2019-05-11T17:27:19.573Z,95136.66
2019-05-11T17:32:22.157Z,95140.42
2019-05-11T17:34:50.532Z,95148.69
2019-05-11T17:37:18.899Z,95161.63
2019-05-11T17:39:47.971Z,95167.11
2019-05-11T17:42:18.032Z,95178.88
2019-05-11T17:44:44.038Z,95173.74
2019-05-11T17:47:12.398Z,95185.33
2019-05-11T17:49:55.971Z,95198.28
2019-05-11T17:52:09.096Z,95200.97
2019-05-11T17:54:39.370Z,95203.72
2019-05-11T17:57:07.824Z,95205.06
2019-05-11T17:59:38.514Z,95202.61
2019-05-11T18:02:04.537Z,95207.86
2019-05-11T18:04:33.773Z,95208.50
2019-05-11T18:09:38.371Z,95211.02
2019-05-11T18:12:06.714Z,95212.48
2019-05-11T18:14:36.211Z,95217.95
2019-05-11T18:17:03.434Z,95215.33
2019-05-11T18:19:31.786Z,95210.27
2019-05-11T18:22:00.128Z,95220.16
2019-05-11T18:24:28.678Z,95232.48
2019-05-11T18:26:59.050Z,95244.73
2019-05-11T18:29:25.219Z,95237.60
2019-05-11T18:31:53.605Z,95250.53
2019-05-11T18:34:22.851Z,95249.58
2019-05-11T18:36:51.203Z,95252.26
2019-05-11T18:39:19.536Z,95250.05
2019-05-11T18:41:48.506Z,95246.89
2019-05-11T18:44:18.726Z,95247.20
2019-05-11T18:46:47.858Z,95257.19
2019-05-11T18:49:13.688Z,95265.80
2019-05-11T18:54:18.942Z,95262.39
2019-05-11T18:56:48.665Z,95270.53
2019-05-11T18:59:15.040Z,95270.71
2019-05-11T19:01:44.364Z,95269.94
2019-05-11T19:04:12.733Z,95262.91
2019-05-11T19:06:41.234Z,95262.98
2019-05-11T19:11:48.937Z,95267.05
2019-05-11T19:14:15.865Z,95272.59
2019-05-11T19:16:44.216Z,95274.75
2019-05-11T19:21:48.213Z,95299.89
2019-05-11T19:24:15.193Z,95287.76
2019-05-11T19:26:43.561Z,95290.55
2019-05-11T19:29:11.909Z,95290.87
2019-05-11T19:31:41.215Z,95294.94
2019-05-11T19:34:09.553Z,95298.50
2019-05-11T19:39:12.179Z,95303.02
2019-05-11T19:41:40.539Z,95302.16
2019-05-11T19:44:08.873Z,95304.06
2019-05-11T19:46:38.782Z,95310.67
2019-05-11T19:49:05.552Z,95314.89
2019-05-11T19:51:33.909Z,95322.61
2019-05-11T19:54:02.284Z,95317.34
2019-05-11T19:56:30.663Z,95320.80
2019-05-11T19:59:09.713Z,95318.44
2019-05-11T20:01:38.060Z,95320.87
2019-05-11T20:04:08.212Z,95328.56
2019-05-11T20:06:34.762Z,95327.11
2019-05-11T20:09:03.138Z,95333.39
2019-05-11T20:11:31.480Z,95337.09
2019-05-11T20:13:59.829Z,95337.05
2019-05-11T20:16:28.179Z,95344.54
2019-05-11T20:18:57.818Z,95345.84
2019-05-11T20:23:59.004Z,95353.68
2019-05-11T20:26:28.598Z,95359.86
2019-05-11T20:31:32.939Z,95375.27
2019-05-11T20:34:02.236Z,95368.17
2019-05-11T20:36:31.528Z,95370.80
2019-05-11T20:38:59.868Z,95363.50
2019-05-11T20:41:29.118Z,95373.13
2019-05-11T20:46:33.699Z,95376.34
2019-05-11T20:49:02.046Z,95375.17
2019-05-11T20:51:36.707Z,95385.38
2019-05-11T20:53:58.732Z,95384.88
2019-05-11T20:56:28.455Z,95392.20
2019-05-11T20:58:58.760Z,95398.67
2019-05-11T21:01:24.710Z,95395.70
2019-05-11T21:03:53.053Z,95399.35
2019-05-11T21:06:21.388Z,95411.64
2019-05-11T21:08:49.727Z,95411.66
2019-05-11T21:11:18.227Z,95406.96
2019-05-11T21:13:48.135Z,95404.56
2019-05-11T21:16:14.771Z,95408.86
2019-05-11T21:18:43.167Z,95404.42
2019-05-11T21:21:12.466Z,95417.76
2019-05-11T21:23:40.874Z,95420.05
2019-05-11T21:26:09.989Z,95412.05
2019-05-11T21:28:38.039Z,95413.08
2019-05-11T21:31:08.049Z,95412.27
2019-05-11T21:33:37.694Z,95417.00
2019-05-11T21:36:03.645Z,95419.54
2019-05-11T21:38:31.995Z,95417.84
2019-05-11T21:43:34.538Z,95417.23
2019-05-11T21:46:02.948Z,95423.20
2019-05-11T21:48:31.421Z,95429.45
2019-05-11T21:51:00.714Z,95431.86
2019-05-11T21:53:29.055Z,95438.88
2019-05-11T21:55:58.491Z,95445.27
2019-05-11T21:58:25.889Z,95438.46
2019-05-11T22:00:55.206Z,95432.18
2019-05-11T22:03:23.546Z,95441.22
2019-05-11T22:05:51.889Z,95436.25
2019-05-11T22:08:21.164Z,95448.75
2019-05-11T22:10:49.500Z,95449.53
2019-05-11T22:13:20.608Z,95449.22
2019-05-11T22:15:48.492Z,95455.83
2019-05-11T22:20:48.783Z,95458.12
2019-05-11T22:23:17.619Z,95455.06
2019-05-11T22:25:47.582Z,95458.22
2019-05-11T22:28:13.875Z,95457.51
2019-05-11T22:30:42.200Z,95457.89
2019-05-11T22:33:10.555Z,95456.16
2019-05-11T22:35:38.881Z,95459.08
2019-05-11T22:38:08.510Z,95464.36
2019-05-11T22:40:38.309Z,95468.55
2019-05-11T22:43:04.931Z,95478.55
2019-05-11T22:45:33.275Z,95478.77
2019-05-11T22:48:01.686Z,95486.75
2019-05-11T22:50:30.031Z,95487.00
2019-05-11T22:52:58.512Z,95483.96
2019-05-11T22:55:27.742Z,95485.28
2019-05-11T22:57:55.228Z,95484.00
2019-05-11T23:00:40.058Z,95487.86
2019-05-11T23:05:47.615Z,95494.27
2019-05-11T23:08:13.985Z,95484.31
2019-05-11T23:10:42.332Z,95480.45
2019-05-11T23:13:11.269Z,95481.84
2019-05-11T23:15:40.378Z,95478.86
2019-05-11T23:18:08.768Z,95480.23
2019-05-11T23:20:38.635Z,95477.01
2019-05-11T23:23:05.032Z,95478.18
2019-05-11T23:25:33.380Z,95483.15
2019-05-11T23:28:02.788Z,95482.98
2019-05-11T23:30:31.134Z,95484.62
2019-05-11T23:32:59.500Z,95469.78
2019-05-11T23:35:28.522Z,95467.53
2019-05-11T23:37:58.117Z,95473.67
2019-05-11T23:40:24.564Z,95473.11
2019-05-11T23:42:52.901Z,95470.17
2019-05-11T23:45:21.303Z,95465.78
2019-05-11T23:47:49.666Z,95470.27
2019-05-11T23:50:18.912Z,95467.70
2019-05-11T23:55:20.758Z,95472.49
